Airfield :
LOGIN :

Register | Disclaimer

   EN    FR    IT 

 










Legend :    VFR   Marginal VFR   IFR   Intensive IFR   Very Intensive IFR
Visi :
Ceiling :
>= 8 km
>= 3000ft
5 to 8 km
1000 to 3000 ft
1500m to 5 km
500 to 1000 ft
800 to 1500m
200 to 500 ft
< 800m
< 200 ft
Symbols :   Thunderstorms  Fog  Heavy snow  Heavy precipitations  Wind > 20 kt
SIGMETs :     Misc.  Thunderstorms  Icing  Turbulence  Mountain Waves  Volcanic Ashes







- Airport Elevation : 52 ft
- IATA code : IOM
- Download approach charts


EGNS - Isle of Man

CURRENT METAR :
  • 241820Z 27006KT 220V310 9999 FEW012 BKN017 14/10 Q1018 NOSIG

EXPIRED METARs :
  • 241750Z 25007KT 220V280 9999 FEW015 BKN020 14/10 Q1018 NOSIG
  • 241720Z 25006KT 9999 BKN021 14/10 Q1018 NOSIG
  • 241650Z 28008KT 250V310 9999 BKN025 15/10 Q1018 NOSIG
  • 241620Z 25008KT 230V300 9999 BKN030 14/10 Q1018 NOSIG
  • 241550Z 26010KT 9999 FEW030 BKN040 14/10 Q1018 NOSIG

TAF TAF EGNS
Valid from the 24 at 18:00 until the 24 at 21:00 UTC


241700Z 2418/2421 30008KT 9999 BKN025
No reported NOTAMs for that airfield.



MET'MAP, your aeronautical weather chart ! - Copyright ORBIFLY December 2007 - Disclaimer

ORBIFLY MET'MAP TEAM :

Programming & Development : Alexandra Zaïnal
Concept & Development : Baudouin d'Aumeries
Co-Development & Prog : Marc-Olivier Méhu
Technical & hardware support : Manuel Goepfert

Contact : metmap@orbifly.com




SOURCES & CREDITS :

   NOAA